Time;durP1;ratioP1;P1;durP2;ratioP2;P2;SDS_P1;SDS_P2;PMS_P1;PMS_P2;Temp;Humidity;BMP_temperature;BMP_pressure;BME280_temperature;BME280_humidity;BME280_pressure;Samples;Min_cycle;Max_cycle;Signal;HPM_P1;HPM_P2
2023/02/28 00:01:13;;;;;;;2.10;1.60;;;1.00;99.90;;;;;;4986807;28;20027;-72
2023/02/28 00:03:38;;;;;;;4.00;1.80;;;1.00;99.90;;;;;;4987207;28;20034;-71
2023/02/28 00:06:05;;;;;;;3.13;1.83;;;1.00;99.90;;;;;;4980001;28;20389;-72
2023/02/28 00:08:31;;;;;;;2.80;1.80;;;0.90;99.90;;;;;;4976524;28;20030;-72
2023/02/28 00:11:02;;;;;;;3.03;2.10;;;0.90;99.90;;;;;;4971122;28;20030;-72
2023/02/28 00:13:27;;;;;;;2.87;1.83;;;0.90;99.90;;;;;;4968403;28;20081;-73
2023/02/28 00:16:05;;;;;;;3.13;1.80;;;0.90;99.90;;;;;;4990793;28;20026;-73
2023/02/28 00:18:31;;;;;;;2.77;1.83;;;0.90;99.90;;;;;;4990538;28;20092;-73
2023/02/28 00:20:57;;;;;;;2.70;1.70;;;0.90;99.90;;;;;;4962999;28;20034;-73
2023/02/28 00:23:23;;;;;;;2.77;1.77;;;0.90;99.90;;;;;;4966531;28;20034;-73
2023/02/28 00:25:49;;;;;;;4.27;2.07;;;0.90;99.90;;;;;;4965563;28;20030;-72
2023/02/28 00:28:15;;;;;;;3.00;2.00;;;0.80;99.90;;;;;;4988902;28;20084;-73
2023/02/28 00:30:40;;;;;;;2.03;1.63;;;0.80;99.90;;;;;;4960880;28;20039;-72
2023/02/28 00:33:06;;;;;;;3.27;2.00;;;0.80;99.90;;;;;;4958709;28;20037;-73
2023/02/28 00:35:32;;;;;;;4.13;2.00;;;0.80;99.90;;;;;;4975032;28;20487;-73
2023/02/28 00:37:57;;;;;;;3.53;1.70;;;0.80;99.90;;;;;;4958742;28;20038;-72
2023/02/28 00:40:23;;;;;;;4.13;2.10;;;0.80;99.90;;;;;;4990675;28;20034;-73
2023/02/28 00:42:48;;;;;;;2.43;2.00;;;0.80;99.90;;;;;;4995207;28;20038;-72
2023/02/28 00:45:14;;;;;;;2.90;1.80;;;0.80;99.90;;;;;;4995119;28;20387;-72
2023/02/28 00:47:40;;;;;;;3.17;1.60;;;0.70;99.90;;;;;;4977096;28;20037;-72
2023/02/28 00:50:06;;;;;;;3.47;1.83;;;0.70;99.90;;;;;;4977528;28;20029;-73
2023/02/28 00:52:31;;;;;;;3.70;1.97;;;0.70;99.90;;;;;;4976781;28;20038;-72
2023/02/28 00:54:57;;;;;;;3.00;1.83;;;0.70;99.90;;;;;;4994548;28;20554;-73
2023/02/28 00:57:23;;;;;;;2.00;1.80;;;0.70;99.90;;;;;;4993488;28;20031;-73
2023/02/28 00:59:48;;;;;;;3.27;1.70;;;0.70;99.90;;;;;;4994688;28;20034;-73
2023/02/28 01:02:14;;;;;;;3.60;2.07;;;0.70;99.90;;;;;;4977413;28;20022;-73
2023/02/28 01:04:40;;;;;;;2.77;1.70;;;0.60;99.90;;;;;;4993780;28;20109;-74
2023/02/28 01:07:05;;;;;;;3.10;1.90;;;0.60;99.90;;;;;;4977350;28;20077;-74
2023/02/28 01:09:31;;;;;;;3.00;2.07;;;0.60;99.90;;;;;;4976297;28;20369;-74
2023/02/28 01:11:56;;;;;;;3.80;2.00;;;0.60;99.90;;;;;;4977530;28;20121;-74
2023/02/28 01:14:42;;;;;;;3.23;2.10;;;0.60;99.90;;;;;;4993977;28;20033;-74
2023/02/28 01:17:08;;;;;;;3.83;2.03;;;0.60;99.90;;;;;;4976799;28;20038;-73
2023/02/28 01:19:35;;;;;;;2.80;1.80;;;0.60;99.90;;;;;;4976241;28;20031;-74
2023/02/28 01:22:05;;;;;;;2.60;1.97;;;0.60;99.90;;;;;;4994476;28;20034;-74
2023/02/28 01:24:30;;;;;;;4.50;2.30;;;0.60;99.90;;;;;;4976193;28;20041;-74
2023/02/28 01:26:56;;;;;;;3.23;1.90;;;0.50;99.90;;;;;;4994484;28;20352;-74
2023/02/28 01:29:21;;;;;;;3.03;1.80;;;0.50;99.90;;;;;;4993241;28;20030;-74
2023/02/28 01:31:47;;;;;;;2.40;1.80;;;0.50;99.90;;;;;;4976895;28;20031;-74
2023/02/28 01:34:12;;;;;;;3.40;2.00;;;0.40;99.90;;;;;;4976852;28;20431;-74
2023/02/28 01:36:38;;;;;;;5.43;2.27;;;0.40;99.90;;;;;;4976030;28;20026;-74
2023/02/28 01:39:04;;;;;;;2.47;1.83;;;0.50;99.90;;;;;;4994068;28;20038;-74
2023/02/28 01:41:33;;;;;;;3.33;1.90;;;0.40;99.90;;;;;;4975984;28;20033;-74
2023/02/28 01:44:07;;;;;;;4.40;2.13;;;0.40;99.90;;;;;;4994245;28;20117;-74
2023/02/28 01:46:35;;;;;;;3.10;2.20;;;0.40;99.90;;;;;;4993300;28;20064;-74
2023/02/28 01:49:06;;;;;;;5.20;2.23;;;0.40;99.90;;;;;;4993666;28;20041;-74
2023/02/28 01:51:39;;;;;;;4.43;2.07;;;0.30;99.90;;;;;;4993516;28;20081;-74
2023/02/28 01:54:13;;;;;;;3.00;2.00;;;0.30;99.90;;;;;;4993828;28;20071;-74
2023/02/28 01:56:43;;;;;;;5.80;2.10;;;0.30;99.90;;;;;;4993075;28;20027;-73
2023/02/28 01:59:09;;;;;;;3.23;2.10;;;0.30;99.90;;;;;;4976336;28;20034;-73
2023/02/28 02:01:35;;;;;;;3.33;2.20;;;0.30;99.90;;;;;;4975560;28;20464;-73
2023/02/28 02:04:03;;;;;;;3.93;2.20;;;0.30;99.90;;;;;;4976123;28;20074;-74
2023/02/28 02:06:39;;;;;;;2.07;1.83;;;0.30;99.90;;;;;;4993048;28;20035;-73
2023/02/28 02:09:05;;;;;;;3.47;2.07;;;0.30;99.90;;;;;;4993349;28;20026;-73
2023/02/28 02:11:31;;;;;;;5.23;2.00;;;0.20;99.90;;;;;;4975149;28;20089;-73
2023/02/28 02:14:19;;;;;;;4.23;2.10;;;0.20;99.90;;;;;;4976012;28;20121;-74
2023/02/28 02:17:12;;;;;;;5.03;2.43;;;0.20;99.90;;;;;;4975503;28;20125;-74
2023/02/28 02:20:16;;;;;;;3.40;2.00;;;0.20;99.90;;;;;;4975300;28;20121;-73
2023/02/28 02:22:47;;;;;;;4.20;2.10;;;0.20;99.90;;;;;;4975161;28;20076;-73
2023/02/28 02:25:28;;;;;;;3.45;2.10;;;0.20;99.90;;;;;;4975830;28;20027;-74
2023/02/28 02:28:09;;;;;;;3.37;1.97;;;0.20;99.90;;;;;;4975904;28;20026;-74
2023/02/28 02:30:50;;;;;;;2.93;2.20;;;0.20;99.90;;;;;;4975001;28;20030;-73
2023/02/28 02:33:54;;;;;;;5.20;2.23;;;0.20;99.90;;;;;;4975872;28;20036;-73
2023/02/28 02:36:24;;;;;;;4.17;2.20;;;0.20;99.90;;;;;;4975890;28;20125;-73
2023/02/28 02:39:02;;;;;;;4.53;2.30;;;0.20;99.90;;;;;;4993300;28;20029;-73
2023/02/28 02:41:46;;;;;;;3.00;2.10;;;0.20;99.90;;;;;;4992060;28;20475;-74
2023/02/28 02:44:36;;;;;;;3.80;2.10;;;0.20;99.90;;;;;;4993032;28;20375;-73
2023/02/28 02:47:14;;;;;;;5.93;2.10;;;0.20;99.90;;;;;;4992792;28;20027;-74
2023/02/28 02:49:44;;;;;;;4.27;2.00;;;0.20;99.90;;;;;;4991975;28;20340;-73
2023/02/28 02:52:13;;;;;;;4.30;2.43;;;0.20;99.90;;;;;;4992992;28;20121;-73
2023/02/28 02:54:43;;;;;;;4.23;2.40;;;0.20;99.90;;;;;;4977688;28;20141;-73
2023/02/28 02:57:17;;;;;;;5.10;2.27;;;0.10;99.90;;;;;;4993003;28;20116;-73
2023/02/28 02:59:43;;;;;;;5.03;2.40;;;0.10;99.90;;;;;;4990778;28;20041;-74
2023/02/28 03:02:14;;;;;;;4.93;2.10;;;0.10;99.90;;;;;;4992721;28;20137;-73
2023/02/28 03:04:46;;;;;;;3.00;2.33;;;0.20;99.90;;;;;;4990538;28;20080;-73
2023/02/28 03:07:11;;;;;;;;;;;0.10;99.90;;;;;;4993381;28;20038;-73
2023/02/28 03:09:37;;;;;;;5.20;2.50;;;0.10;99.90;;;;;;4990635;28;19910;-73
2023/02/28 03:12:04;;;;;;;3.60;2.33;;;0.10;99.90;;;;;;4991424;28;20080;-74
2023/02/28 03:15:05;;;;;;;4.20;2.20;;;0.10;99.90;;;;;;4990784;28;20121;-74
2023/02/28 03:17:55;;;;;;;3.37;2.30;;;0.10;99.90;;;;;;4973642;28;20072;-73
2023/02/28 03:21:04;;;;;;;4.70;2.43;;;0.10;99.90;;;;;;4992678;28;20034;-73
2023/02/28 03:23:48;;;;;;;3.73;2.30;;;0.10;99.90;;;;;;4996046;28;20033;-74
2023/02/28 03:26:23;;;;;;;4.57;2.20;;;0.20;99.90;;;;;;4995467;28;20030;-73
2023/02/28 03:29:06;;;;;;;5.17;2.50;;;0.20;99.90;;;;;;4994614;28;20061;-73
2023/02/28 03:31:38;;;;;;;7.30;2.90;;;0.20;99.90;;;;;;4995912;28;20030;-73
2023/02/28 03:34:16;;;;;;;4.43;2.72;;;0.20;99.90;;;;;;4995376;28;20026;-73
2023/02/28 03:36:47;;;;;;;4.43;2.40;;;0.30;99.90;;;;;;4994447;28;20034;-73
2023/02/28 03:39:48;;;;;;;3.28;2.53;;;0.30;99.90;;;;;;4996552;28;20065;-73
2023/02/28 03:42:20;;;;;;;2.73;2.20;;;0.30;99.90;;;;;;4954606;28;20472;-73
2023/02/28 03:44:50;;;;;;;3.10;2.33;;;0.40;99.90;;;;;;4995693;28;20305;-73
2023/02/28 03:47:28;;;;;;;5.00;2.60;;;0.40;99.90;;;;;;4995026;28;20480;-73
2023/02/28 03:50:00;;;;;;;3.53;2.40;;;0.40;99.90;;;;;;4995888;28;20053;-73
2023/02/28 03:52:31;;;;;;;5.15;2.75;;;0.40;99.90;;;;;;4994935;28;20097;-74
2023/02/28 03:55:02;;;;;;;3.77;2.47;;;0.40;99.90;;;;;;4996143;28;20053;-73
2023/02/28 03:57:42;;;;;;;5.35;2.63;;;0.40;99.90;;;;;;4978272;28;20034;-75
2023/02/28 04:00:16;;;;;;;4.83;2.60;;;0.40;99.90;;;;;;4978790;28;20026;-73
2023/02/28 04:02:42;;;;;;;3.83;2.30;;;0.50;99.90;;;;;;4977478;28;20029;-74
2023/02/28 04:05:08;;;;;;;5.53;2.30;;;0.40;99.90;;;;;;4996304;28;20027;-73
2023/02/28 04:07:34;;;;;;;3.63;2.50;;;0.50;99.90;;;;;;4977756;28;20388;-73
2023/02/28 04:10:00;;;;;;;5.10;2.57;;;0.50;99.90;;;;;;4978367;28;20088;-74
2023/02/28 04:12:25;;;;;;;4.73;2.70;;;0.50;99.90;;;;;;4978419;28;20034;-73
2023/02/28 04:14:51;;;;;;;4.43;2.60;;;0.50;99.90;;;;;;4977537;28;20034;-74
2023/02/28 04:17:17;;;;;;;5.37;2.57;;;0.60;99.90;;;;;;4978210;28;20069;-74
2023/02/28 04:19:42;;;;;;;6.23;2.60;;;0.60;99.90;;;;;;4977442;28;20027;-74
2023/02/28 04:22:09;;;;;;;5.87;2.87;;;0.60;99.90;;;;;;4978222;28;20081;-73
2023/02/28 04:24:36;;;;;;;4.20;2.70;;;0.60;99.90;;;;;;4977291;28;20053;-73
2023/02/28 04:27:02;;;;;;;4.60;2.67;;;0.60;99.90;;;;;;4995532;28;20034;-73
2023/02/28 04:29:30;;;;;;;7.10;2.77;;;0.60;99.90;;;;;;4978023;28;20042;-73
2023/02/28 04:31:59;;;;;;;3.13;2.33;;;0.60;99.90;;;;;;4977755;28;20076;-74
2023/02/28 04:34:30;;;;;;;4.40;2.83;;;0.60;99.90;;;;;;4977799;28;20030;-73
2023/02/28 04:36:56;;;;;;;5.57;2.80;;;0.60;99.90;;;;;;4977539;28;20093;-73
2023/02/28 04:39:23;;;;;;;5.10;3.03;;;0.60;99.90;;;;;;4977780;28;20102;-73
2023/02/28 04:41:50;;;;;;;4.50;2.50;;;0.60;99.90;;;;;;4994536;28;20418;-73
2023/02/28 04:44:16;;;;;;;3.97;2.37;;;0.60;99.90;;;;;;4995451;28;20097;-74
2023/02/28 04:46:42;;;;;;;4.93;3.03;;;0.70;99.90;;;;;;4977096;28;20125;-74
2023/02/28 04:49:11;;;;;;;5.80;2.90;;;0.60;99.90;;;;;;4994987;28;20053;-74
2023/02/28 04:51:37;;;;;;;3.10;2.57;;;0.70;99.90;;;;;;4994504;28;20125;-74
2023/02/28 04:54:02;;;;;;;4.70;2.90;;;0.70;99.90;;;;;;4994947;28;20451;-73
2023/02/28 04:56:28;;;;;;;4.90;3.10;;;0.70;99.90;;;;;;4993312;28;20101;-74
2023/02/28 04:58:54;;;;;;;3.90;2.83;;;0.60;99.90;;;;;;4992950;28;20034;-74
2023/02/28 05:01:29;;;;;;;4.30;2.90;;;0.60;99.90;;;;;;4993798;28;20073;-74
2023/02/28 05:03:56;;;;;;;6.80;2.83;;;0.60;99.90;;;;;;4994127;28;20086;-74
2023/02/28 05:06:24;;;;;;;4.97;2.93;;;0.70;99.90;;;;;;4994854;28;20046;-74
2023/02/28 05:08:49;;;;;;;5.37;3.03;;;0.60;99.90;;;;;;4992647;28;20117;-74
2023/02/28 05:11:25;;;;;;;5.33;2.97;;;0.60;99.90;;;;;;4994753;28;20110;-74
2023/02/28 05:13:52;;;;;;;5.30;2.80;;;0.60;99.90;;;;;;4992742;28;20483;-74
2023/02/28 05:16:19;;;;;;;3.83;2.60;;;0.50;99.90;;;;;;4993155;28;20088;-74
2023/02/28 05:18:45;;;;;;;5.83;2.97;;;0.60;99.90;;;;;;4993921;28;20018;-74
2023/02/28 05:21:27;;;;;;;4.63;2.70;;;0.50;99.90;;;;;;4994209;28;20109;-74
2023/02/28 05:23:53;;;;;;;5.68;2.72;;;0.50;99.90;;;;;;4992447;28;20603;-73
2023/02/28 05:26:19;;;;;;;5.17;3.07;;;0.50;99.90;;;;;;4994505;28;20023;-74
2023/02/28 05:28:45;;;;;;;4.67;3.00;;;0.50;99.90;;;;;;4993592;28;20157;-74
2023/02/28 05:31:11;;;;;;;6.17;3.07;;;0.50;99.90;;;;;;4994411;28;20113;-74
2023/02/28 05:33:37;;;;;;;5.23;3.27;;;0.50;99.90;;;;;;4992037;28;20023;-74
2023/02/28 05:36:03;;;;;;;4.93;3.17;;;0.40;99.90;;;;;;4992865;28;20543;-74
2023/02/28 05:38:29;;;;;;;5.13;3.43;;;0.50;99.90;;;;;;4994175;28;20058;-74
2023/02/28 05:40:54;;;;;;;5.67;3.50;;;0.50;99.90;;;;;;4993670;28;20113;-73
2023/02/28 05:43:20;;;;;;;4.73;3.00;;;0.50;99.90;;;;;;4992753;28;20026;-74
2023/02/28 05:45:45;;;;;;;4.10;2.90;;;0.50;99.90;;;;;;4991869;28;20033;-74
2023/02/28 05:48:11;;;;;;;5.80;3.23;;;0.60;99.90;;;;;;4992788;28;20054;-73
2023/02/28 05:50:37;;;;;;;4.63;3.00;;;0.50;99.90;;;;;;4993140;28;20034;-74
2023/02/28 05:53:03;;;;;;;6.50;3.50;;;0.60;99.90;;;;;;4992932;28;20033;-74
2023/02/28 05:55:29;;;;;;;4.43;3.10;;;0.50;99.90;;;;;;4992358;28;20077;-73
2023/02/28 05:57:55;;;;;;;4.97;3.50;;;0.50;99.90;;;;;;4991427;28;20022;-74
2023/02/28 06:00:22;;;;;;;5.70;3.20;;;0.50;99.90;;;;;;4993816;28;20044;-73
2023/02/28 06:02:48;;;;;;;5.00;3.13;;;0.50;99.90;;;;;;4991804;28;20023;-73
2023/02/28 06:05:16;;;;;;;7.17;3.17;;;0.50;99.90;;;;;;4993635;28;20030;-73
2023/02/28 06:07:43;;;;;;;5.97;3.27;;;0.50;99.90;;;;;;4991718;28;20038;-73
2023/02/28 06:10:10;;;;;;;7.10;3.63;;;0.50;99.90;;;;;;4992535;28;20364;-73
2023/02/28 06:12:37;;;;;;;6.57;3.20;;;0.50;99.90;;;;;;4991806;28;20340;-74
2023/02/28 06:15:02;;;;;;;6.00;3.20;;;0.50;99.90;;;;;;4991993;28;20464;-74
2023/02/28 06:17:28;;;;;;;6.83;3.43;;;0.50;99.90;;;;;;4993565;28;20080;-73
2023/02/28 06:19:54;;;;;;;6.40;3.57;;;0.50;99.90;;;;;;4991556;28;20145;-74
2023/02/28 06:22:19;;;;;;;5.83;3.50;;;0.60;99.90;;;;;;4993433;28;20026;-74
2023/02/28 06:24:45;;;;;;;5.73;3.30;;;0.50;99.90;;;;;;4992394;28;20062;-74
2023/02/28 06:27:10;;;;;;;6.40;3.57;;;0.60;99.90;;;;;;4993349;28;20031;-74
2023/02/28 06:29:39;;;;;;;6.47;3.57;;;0.60;99.90;;;;;;4991720;28;20112;-75
2023/02/28 06:32:05;;;;;;;5.60;3.57;;;0.60;99.90;;;;;;4993283;28;20022;-74
2023/02/28 06:34:30;;;;;;;5.83;3.27;;;0.70;99.90;;;;;;4993229;28;20468;-74
2023/02/28 06:36:56;;;;;;;6.03;3.57;;;0.70;99.90;;;;;;4992526;28;20041;-74
2023/02/28 06:39:22;;;;;;;5.13;3.17;;;0.70;99.90;;;;;;4993173;28;20117;-73
2023/02/28 06:41:47;;;;;;;6.60;3.50;;;0.70;99.90;;;;;;4991115;28;20467;-74
2023/02/28 06:44:15;;;;;;;6.20;3.17;;;0.80;99.90;;;;;;4992052;28;20026;-74
2023/02/28 06:46:43;;;;;;;7.03;3.50;;;0.80;99.90;;;;;;4992025;28;20435;-73
2023/02/28 06:49:09;;;;;;;6.20;3.63;;;0.80;99.90;;;;;;4992896;28;20113;-74
2023/02/28 06:51:36;;;;;;;6.63;3.67;;;0.90;99.90;;;;;;4979770;28;20195;-73
2023/02/28 06:54:03;;;;;;;8.13;3.60;;;0.90;99.90;;;;;;4972761;28;20026;-73
2023/02/28 06:56:29;;;;;;;7.03;3.77;;;0.90;99.90;;;;;;4972783;28;20054;-74
2023/02/28 06:58:54;;;;;;;6.20;3.50;;;0.90;99.90;;;;;;4955519;28;20030;-74
2023/02/28 07:01:22;;;;;;;6.33;3.47;;;0.90;99.90;;;;;;4963065;28;20026;-73
2023/02/28 07:03:51;;;;;;;8.00;3.70;;;0.90;99.90;;;;;;4960236;28;20027;-74
2023/02/28 07:06:22;;;;;;;5.30;3.90;;;0.90;99.90;;;;;;4955910;28;20456;-74
2023/02/28 07:08:48;;;;;;;8.30;3.83;;;1.00;99.90;;;;;;4956223;28;20090;-73
2023/02/28 07:11:14;;;;;;;12.13;3.80;;;1.00;99.90;;;;;;4982551;28;20475;-74
2023/02/28 07:13:40;;;;;;;6.67;3.80;;;1.00;99.90;;;;;;4975134;28;20458;-74
2023/02/28 07:16:09;;;;;;;7.10;3.50;;;1.10;99.90;;;;;;4974572;28;20106;-74
2023/02/28 07:18:35;;;;;;;7.30;3.90;;;1.10;99.90;;;;;;4966677;28;20022;-73
2023/02/28 07:21:06;;;;;;;4.90;3.13;;;1.10;99.90;;;;;;4963985;28;20117;-75
2023/02/28 07:23:32;;;;;;;6.70;3.63;;;1.20;99.90;;;;;;4966007;28;20026;-73
2023/02/28 07:25:58;;;;;;;6.70;3.50;;;1.20;99.90;;;;;;4967149;28;20792;-73
2023/02/28 07:28:24;;;;;;;4.67;3.23;;;1.20;99.90;;;;;;4966440;28;20057;-73
2023/02/28 07:30:50;;;;;;;6.67;3.90;;;1.20;99.90;;;;;;4965951;28;20114;-73
2023/02/28 07:33:15;;;;;;;7.50;4.07;;;1.20;99.90;;;;;;4966686;28;20023;-74
2023/02/28 07:35:41;;;;;;;9.23;3.87;;;1.30;99.90;;;;;;4964523;28;20514;-74
2023/02/28 07:38:07;;;;;;;7.10;3.90;;;1.30;99.90;;;;;;4964945;28;20380;-74
2023/02/28 07:40:34;;;;;;;6.47;3.67;;;1.30;99.90;;;;;;4961702;28;20030;-74
2023/02/28 07:43:00;;;;;;;9.33;3.70;;;1.40;99.90;;;;;;4964406;28;20027;-73
2023/02/28 07:45:28;;;;;;;6.80;3.90;;;1.40;99.90;;;;;;4981057;28;20488;-73
2023/02/28 07:47:54;;;;;;;6.60;3.60;;;1.40;99.90;;;;;;4963506;28;20114;-74
2023/02/28 07:50:20;;;;;;;6.93;3.80;;;1.40;99.90;;;;;;4983403;28;20440;-74
2023/02/28 07:52:45;;;;;;;7.67;3.40;;;1.40;99.90;;;;;;4965727;28;20026;-74
2023/02/28 07:55:11;;;;;;;6.10;3.47;;;1.40;99.90;;;;;;4971949;28;20046;-74
2023/02/28 07:57:36;;;;;;;5.37;3.67;;;1.50;99.90;;;;;;4982915;28;20023;-74
2023/02/28 08:00:09;;;;;;;8.70;4.73;;;1.50;99.90;;;;;;4980248;28;20447;-74
2023/02/28 08:02:35;;;;;;;8.17;4.10;;;1.60;99.90;;;;;;4982652;28;20023;-74
2023/02/28 08:05:01;;;;;;;6.83;4.03;;;1.60;99.90;;;;;;4978901;28;20077;-74
2023/02/28 08:07:27;;;;;;;8.03;4.13;;;1.70;99.90;;;;;;4978521;28;20119;-73
2023/02/28 08:09:53;;;;;;;7.47;4.00;;;1.70;99.90;;;;;;4983387;28;20082;-74
2023/02/28 08:12:18;;;;;;;6.07;4.10;;;1.70;99.90;;;;;;4983620;28;20030;-74
2023/02/28 08:14:44;;;;;;;8.10;4.13;;;1.70;99.90;;;;;;4985017;28;20357;-74
2023/02/28 08:17:10;;;;;;;6.27;3.70;;;1.70;99.90;;;;;;4989560;28;20081;-74
2023/02/28 08:19:36;;;;;;;6.47;3.50;;;1.70;99.90;;;;;;4985531;28;20023;-74
2023/02/28 08:22:02;;;;;;;6.53;3.77;;;1.80;99.90;;;;;;4992049;28;20030;-73
2023/02/28 08:24:28;;;;;;;6.13;3.83;;;1.80;99.90;;;;;;4990491;28;20729;-74
2023/02/28 08:26:53;;;;;;;8.57;4.30;;;1.90;99.90;;;;;;4981925;28;20019;-74
2023/02/28 08:29:19;;;;;;;7.03;4.00;;;1.90;99.90;;;;;;4983357;28;20031;-74
2023/02/28 08:31:44;;;;;;;8.20;4.33;;;1.90;99.90;;;;;;4988847;28;20495;-74
2023/02/28 08:34:13;;;;;;;7.53;4.33;;;1.90;99.90;;;;;;4977701;28;20031;-75
2023/02/28 08:36:40;;;;;;;8.30;4.00;;;1.90;99.90;;;;;;4994169;28;20081;-74
2023/02/28 08:39:06;;;;;;;7.27;4.13;;;2.00;99.90;;;;;;4983532;28;20042;-74
2023/02/28 08:41:33;;;;;;;7.23;4.07;;;2.00;99.90;;;;;;4987778;28;20030;-74
2023/02/28 08:43:58;;;;;;;8.70;4.00;;;2.10;99.90;;;;;;4978195;28;20041;-74
2023/02/28 08:46:24;;;;;;;6.67;3.73;;;2.20;99.90;;;;;;4986615;28;20023;-73
2023/02/28 08:48:54;;;;;;;8.40;4.03;;;2.30;99.90;;;;;;4973630;28;20380;-73
2023/02/28 08:51:26;;;;;;;7.70;4.40;;;2.30;99.90;;;;;;4974345;28;20027;-73
2023/02/28 08:53:52;;;;;;;7.90;4.45;;;2.30;99.90;;;;;;4990619;28;20073;-74
2023/02/28 08:56:19;;;;;;;8.53;4.40;;;2.30;99.90;;;;;;4977197;28;20070;-73
2023/02/28 08:58:46;;;;;;;8.60;4.40;;;2.40;99.90;;;;;;4986258;28;20380;-74
2023/02/28 09:01:28;;;;;;;7.50;4.03;;;2.50;99.90;;;;;;4985451;28;20026;-74
2023/02/28 09:03:55;;;;;;;8.13;4.57;;;2.40;99.90;;;;;;4977681;28;20524;-75
2023/02/28 09:06:22;;;;;;;10.83;4.10;;;2.40;99.90;;;;;;4991356;28;20023;-74
2023/02/28 09:08:49;;;;;;;10.10;4.90;;;2.50;99.90;;;;;;4981774;28;20034;-74
2023/02/28 09:11:16;;;;;;;8.70;4.50;;;2.50;99.90;;;;;;4982465;28;20392;-73
2023/02/28 09:13:42;;;;;;;7.80;4.43;;;2.40;99.90;;;;;;4988640;28;20035;-73
2023/02/28 09:16:11;;;;;;;8.47;4.43;;;2.40;99.90;;;;;;4977779;28;20133;-73
2023/02/28 09:18:37;;;;;;;7.60;4.30;;;2.40;99.90;;;;;;4986474;28;20023;-74
2023/02/28 09:21:08;;;;;;;8.80;4.50;;;2.50;99.90;;;;;;4983590;28;20034;-74
2023/02/28 09:23:34;;;;;;;11.23;4.37;;;2.50;99.90;;;;;;4979870;28;20050;-74
2023/02/28 09:26:00;;;;;;;10.00;4.70;;;2.60;99.90;;;;;;4988945;28;20430;-74
2023/02/28 09:28:25;;;;;;;9.50;4.97;;;2.60;99.90;;;;;;4979269;28;20097;-73
2023/02/28 09:30:53;;;;;;;10.67;4.63;;;2.70;99.90;;;;;;4985753;28;20038;-74
2023/02/28 09:33:20;;;;;;;9.77;4.80;;;2.80;99.90;;;;;;4986399;28;20105;-74
2023/02/28 09:35:48;;;;;;;6.87;4.40;;;2.80;99.90;;;;;;4992187;28;20415;-74
2023/02/28 09:38:13;;;;;;;7.07;4.20;;;2.80;99.90;;;;;;4990088;28;20038;-73
2023/02/28 09:41:01;;;;;;;11.80;5.27;;;2.80;99.90;;;;;;4980705;28;20096;-73
2023/02/28 09:43:35;;;;;;;8.73;5.17;;;2.80;99.90;;;;;;4981573;28;20034;-74
2023/02/28 09:46:07;;;;;;;9.07;4.93;;;2.80;99.90;;;;;;4989086;28;20117;-73
2023/02/28 09:48:37;;;;;;;8.00;4.82;;;2.80;99.90;;;;;;4973606;28;20118;-73
2023/02/28 09:51:09;;;;;;;8.07;4.50;;;2.80;99.90;;;;;;4977660;28;20435;-73
2023/02/28 09:53:39;;;;;;;11.47;5.10;;;2.90;99.90;;;;;;4977645;28;20460;-72
2023/02/28 09:56:08;;;;;;;9.57;4.77;;;3.10;99.90;;;;;;4985253;28;20495;-73
2023/02/28 09:58:42;;;;;;;7.57;4.67;;;3.20;99.90;;;;;;4964584;28;20476;-72
2023/02/28 10:01:26;;;;;;;9.47;5.07;;;3.20;99.90;;;;;;4966283;28;20054;-73
2023/02/28 10:03:54;;;;;;;7.90;4.47;;;3.40;99.90;;;;;;4959643;28;20027;-73
2023/02/28 10:06:25;;;;;;;7.37;4.33;;;3.50;99.90;;;;;;4977848;28;20096;-73
2023/02/28 10:09:05;;;;;;;6.37;3.87;;;3.50;99.90;;;;;;4985135;28;20023;-73
2023/02/28 10:11:35;;;;;;;8.63;5.00;;;3.60;99.90;;;;;;4987205;28;20387;-73
2023/02/28 10:14:17;;;;;;;7.53;4.50;;;3.60;99.90;;;;;;4976775;28;20049;-73
2023/02/28 10:17:03;;;;;;;8.67;4.53;;;3.70;99.90;;;;;;4986716;28;20025;-76
2023/02/28 10:19:44;;;;;;;9.43;4.70;;;3.70;99.90;;;;;;4980339;28;20060;-71
2023/02/28 10:22:31;;;;;;;10.37;5.07;;;3.60;99.90;;;;;;4980579;28;20081;-73
2023/02/28 10:24:59;;;;;;;6.83;4.27;;;3.60;99.90;;;;;;4965856;28;20030;-73
2023/02/28 10:27:34;;;;;;;11.40;4.77;;;3.60;99.90;;;;;;4983297;28;20054;-72
2023/02/28 10:30:01;;;;;;;12.60;5.43;;;3.80;99.90;;;;;;4968668;28;20038;-73
2023/02/28 10:32:31;;;;;;;7.80;4.63;;;3.90;99.90;;;;;;4974936;28;20031;-73
2023/02/28 10:35:06;;;;;;;9.73;5.20;;;3.90;99.90;;;;;;4955185;28;20039;-72
2023/02/28 10:37:32;;;;;;;10.83;4.83;;;3.90;99.90;;;;;;4965928;28;20034;-72
2023/02/28 10:39:58;;;;;;;8.03;4.97;;;4.10;99.90;;;;;;4990727;28;20045;-72
2023/02/28 10:42:30;;;;;;;9.67;5.13;;;4.10;99.50;;;;;;4976359;28;20029;-72
2023/02/28 10:45:16;;;;;;;9.30;4.97;;;4.20;99.90;;;;;;4986296;28;20027;-72
2023/02/28 10:47:57;;;;;;;8.20;5.00;;;4.10;99.90;;;;;;4977401;28;20487;-72
2023/02/28 10:50:44;;;;;;;8.00;4.78;;;4.20;99.90;;;;;;4983581;28;20119;-74
2023/02/28 10:53:37;;;;;;;8.67;4.87;;;4.10;98.80;;;;;;4982600;28;20109;-72
2023/02/28 10:56:08;;;;;;;8.90;4.77;;;4.20;99.30;;;;;;4983898;28;20100;-74
2023/02/28 10:59:08;;;;;;;11.05;5.43;;;4.30;99.10;;;;;;4971476;28;20121;-73
2023/02/28 11:01:44;;;;;;;9.43;5.50;;;4.20;99.90;;;;;;4965629;28;20037;-73
2023/02/28 11:04:21;;;;;;;8.37;4.80;;;4.30;98.20;;;;;;4958643;28;20034;-73
2023/02/28 11:06:48;;;;;;;12.70;5.97;;;4.40;98.40;;;;;;4970783;28;20034;-73
2023/02/28 11:09:36;;;;;;;7.77;5.07;;;4.50;97.90;;;;;;4983676;28;20031;-73
2023/02/28 11:12:08;;;;;;;7.37;5.23;;;4.70;98.60;;;;;;4968833;28;20038;-74
2023/02/28 11:14:46;;;;;;;9.87;5.73;;;4.80;98.30;;;;;;4958694;28;20027;-74
2023/02/28 11:17:21;;;;;;;8.70;5.20;;;5.00;98.10;;;;;;4968773;28;20768;-73
2023/02/28 11:19:50;;;;;;;12.83;5.30;;;5.00;96.90;;;;;;4979912;28;20106;-73
2023/02/28 11:22:20;;;;;;;11.97;5.27;;;4.90;97.40;;;;;;4981481;28;20027;-74
2023/02/28 11:24:50;;;;;;;8.13;5.30;;;5.00;97.30;;;;;;4969901;28;20125;-73
2023/02/28 11:27:31;;;;;;;10.20;5.60;;;4.90;96.80;;;;;;4962875;28;20387;-73
2023/02/28 11:29:58;;;;;;;7.43;4.90;;;4.90;95.40;;;;;;4977539;28;20030;-73
2023/02/28 11:32:30;;;;;;;10.20;5.60;;;4.60;96.50;;;;;;4984586;28;20092;-73
2023/02/28 11:35:11;;;;;;;9.20;5.53;;;4.50;96.30;;;;;;4982208;28;20034;-73
2023/02/28 11:37:38;;;;;;;11.70;6.10;;;4.50;96.30;;;;;;4963269;28;20034;-73
2023/02/28 11:40:16;;;;;;;9.00;5.23;;;4.60;96.70;;;;;;4975601;28;20030;-73
2023/02/28 11:43:20;;;;;;;9.93;5.63;;;4.50;97.30;;;;;;4960371;28;20026;-72
2023/02/28 11:46:02;;;;;;;7.37;4.60;;;4.50;96.90;;;;;;4965535;28;20027;-72
2023/02/28 11:48:40;;;;;;;7.80;5.05;;;4.40;96.90;;;;;;4969775;28;20031;-72
2023/02/28 11:51:20;;;;;;;9.90;5.50;;;4.30;96.80;;;;;;4964819;28;20061;-73
2023/02/28 11:53:49;;;;;;;7.57;5.10;;;4.40;97.00;;;;;;4966374;28;20177;-74
2023/02/28 11:56:51;;;;;;;8.70;5.30;;;4.40;97.10;;;;;;4987592;28;20046;-74
2023/02/28 11:59:44;;;;;;;10.38;5.35;;;4.50;97.70;;;;;;4939574;28;20122;-73
2023/02/28 12:02:39;;;;;;;8.43;5.17;;;4.60;97.00;;;;;;4990318;28;20087;-73
2023/02/28 12:05:39;;;;;;;11.87;5.87;;;4.60;96.60;;;;;;4961050;28;20042;-74
2023/02/28 12:08:34;;;;;;;8.77;5.67;;;4.70;96.40;;;;;;4979516;28;20027;-73
2023/02/28 12:11:24;;;;;;;10.40;5.70;;;4.90;96.60;;;;;;4981064;28;20394;-73
2023/02/28 12:14:23;;;;;;;9.33;5.97;;;5.10;96.30;;;;;;4981420;28;20119;-73
2023/02/28 12:17:27;;;;;;;7.83;5.07;;;5.20;95.40;;;;;;4979430;28;20023;-73
2023/02/28 12:20:16;;;;;;;10.70;6.07;;;5.30;95.70;;;;;;4993893;28;20062;-73
2023/02/28 12:22:48;;;;;;;11.20;5.37;;;5.40;94.30;;;;;;4979744;28;20026;-73
2023/02/28 12:25:20;;;;;;;11.13;5.88;;;5.30;94.90;;;;;;4986166;28;20081;-73
2023/02/28 12:27:48;;;;;;;9.40;5.30;;;5.40;94.50;;;;;;4987633;28;20101;-73
2023/02/28 12:30:33;;;;;;;9.47;4.87;;;5.30;94.10;;;;;;4978075;28;20035;-73
2023/02/28 12:33:13;;;;;;;8.40;5.10;;;5.40;94.10;;;;;;4977892;28;20467;-72
2023/02/28 12:35:55;;;;;;;9.63;5.83;;;5.30;95.00;;;;;;4985821;28;20033;-72
2023/02/28 12:38:22;;;;;;;10.30;5.33;;;5.40;95.20;;;;;;4983340;28;20034;-73
2023/02/28 12:41:01;;;;;;;9.13;5.23;;;5.60;94.40;;;;;;4980023;28;20109;-73
2023/02/28 12:43:35;;;;;;;9.63;5.40;;;5.80;94.80;;;;;;4986984;28;20375;-73
2023/02/28 12:46:09;;;;;;;9.80;5.80;;;5.90;94.50;;;;;;4982749;28;20234;-73
2023/02/28 12:48:53;;;;;;;9.40;5.30;;;6.00;92.50;;;;;;4985740;28;20202;-73
2023/02/28 12:51:19;;;;;;;10.70;5.50;;;6.10;92.80;;;;;;4983652;28;20031;-73
2023/02/28 12:54:08;;;;;;;10.33;5.50;;;6.10;92.80;;;;;;4981772;28;20380;-73
2023/02/28 12:56:49;;;;;;;10.43;5.30;;;6.10;92.70;;;;;;4998792;28;20042;-74
2023/02/28 12:59:37;;;;;;;9.80;5.00;;;6.10;92.70;;;;;;4983708;28;20026;-74
2023/02/28 13:02:38;;;;;;;8.63;5.17;;;6.10;92.40;;;;;;4992022;28;20038;-72
2023/02/28 13:05:26;;;;;;;7.50;4.90;;;6.30;92.20;;;;;;4979674;28;20053;-72
2023/02/28 13:07:58;;;;;;;11.57;5.40;;;6.50;92.00;;;;;;4980887;28;20035;-74
2023/02/28 13:10:24;;;;;;;8.90;5.50;;;6.50;91.20;;;;;;4989269;28;20487;-72
2023/02/28 13:12:51;;;;;;;8.83;5.43;;;6.60;91.20;;;;;;4977978;28;20058;-73
2023/02/28 13:15:24;;;;;;;9.73;5.70;;;6.80;90.30;;;;;;4985173;28;20076;-73
2023/02/28 13:17:57;;;;;;;8.73;5.57;;;6.90;90.60;;;;;;4986887;28;20030;-73